createdAt,value
2017-03-10T00:07:22.470Z,0
2017-03-10T00:17:34.404Z,0
2017-03-10T00:27:23.051Z,0
2017-03-10T00:37:30.018Z,0
2017-03-10T00:47:22.563Z,0
2017-03-10T00:57:22.572Z,0
2017-03-10T01:07:22.583Z,0
2017-03-10T01:17:22.672Z,0
2017-03-10T01:27:22.552Z,0
2017-03-10T01:37:22.647Z,0
2017-03-10T01:47:22.618Z,0
2017-03-10T01:57:22.618Z,0
2017-03-10T02:07:22.583Z,0
2017-03-10T02:17:22.565Z,0
2017-03-10T02:27:22.636Z,0
2017-03-10T02:37:22.589Z,0
2017-03-10T02:47:22.660Z,0
2017-03-10T02:57:22.626Z,0
2017-03-10T03:07:22.659Z,0
2017-03-10T03:17:22.664Z,0
2017-03-10T03:27:23.511Z,0
2017-03-10T03:37:22.606Z,0
2017-03-10T03:47:22.718Z,0
2017-03-10T03:57:22.711Z,0
2017-03-10T04:07:22.651Z,0
2017-03-10T04:17:22.713Z,0
2017-03-10T04:27:22.636Z,0
2017-03-10T04:37:22.734Z,0
2017-03-10T04:47:22.743Z,0
2017-03-10T04:57:22.731Z,0
2017-03-10T05:07:22.708Z,0
2017-03-10T05:17:22.781Z,0
2017-03-10T05:27:22.735Z,0
2017-03-10T05:37:22.796Z,16
2017-03-10T05:47:22.752Z,80
2017-03-10T05:57:22.813Z,248
2017-03-10T06:07:22.789Z,356
2017-03-10T06:17:22.763Z,744
2017-03-10T06:27:22.816Z,964
2017-03-10T06:37:22.754Z,952
2017-03-10T06:47:22.813Z,996
2017-03-10T06:57:22.955Z,1360
2017-03-10T07:07:22.887Z,1376
2017-03-10T07:17:22.789Z,2072
2017-03-10T07:27:22.842Z,2948
2017-03-10T07:37:22.865Z,4692
2017-03-10T07:47:22.905Z,3012
2017-03-10T07:57:22.838Z,7172
2017-03-10T08:07:22.926Z,3828
2017-03-10T08:17:22.843Z,10488
2017-03-10T08:27:22.849Z,11388
2017-03-10T08:37:22.911Z,10084
2017-03-10T08:47:22.944Z,12552
2017-03-10T08:57:22.935Z,9936
2017-03-10T09:07:22.899Z,8504
2017-03-10T09:17:22.977Z,11664
2017-03-10T09:27:22.937Z,8024
2017-03-10T09:37:23.982Z,12204
2017-03-10T09:47:22.964Z,4620
2017-03-10T09:57:22.961Z,8148
2017-03-10T10:07:23.004Z,8776
2017-03-10T10:17:22.948Z,9428
2017-03-10T10:27:23.437Z,9888
2017-03-10T10:37:23.009Z,9048
2017-03-10T10:47:23.094Z,6480
2017-03-10T10:57:23.042Z,9424
2017-03-10T11:07:22.999Z,10380
2017-03-10T11:17:23.000Z,7056
2017-03-10T11:27:23.008Z,8612
2017-03-10T11:37:22.987Z,4512
2017-03-10T11:47:23.098Z,6984
2017-03-10T11:57:23.077Z,5960
2017-03-10T12:07:23.175Z,9972
2017-03-10T12:17:23.072Z,8592
2017-03-10T12:27:23.165Z,10592
2017-03-10T12:37:23.100Z,10972
2017-03-10T12:47:23.217Z,10316
2017-03-10T12:57:24.163Z,9912
2017-03-10T13:07:23.078Z,9172
2017-03-10T13:17:23.196Z,6308
2017-03-10T13:27:23.259Z,6868
2017-03-10T13:37:23.195Z,4440
2017-03-10T13:47:23.143Z,5616
2017-03-10T13:57:23.142Z,6540
2017-03-10T14:07:23.281Z,7776
2017-03-10T14:17:23.247Z,6292
2017-03-10T14:27:23.227Z,6348
2017-03-10T14:37:23.256Z,6108
2017-03-10T14:47:23.220Z,5960
2017-03-10T14:57:26.169Z,6044
2017-03-10T15:07:23.279Z,6372
2017-03-10T15:17:23.182Z,4056
2017-03-10T15:27:23.210Z,4868
2017-03-10T15:37:23.202Z,4056
2017-03-10T15:47:23.257Z,4076
2017-03-10T15:57:23.250Z,4584
2017-03-10T16:07:23.303Z,3984
2017-03-10T16:17:23.317Z,2808
2017-03-10T16:27:23.273Z,2320
2017-03-10T16:37:23.292Z,1964
2017-03-10T16:47:23.334Z,1516
2017-03-10T16:57:23.333Z,1252
2017-03-10T17:07:23.391Z,688
2017-03-10T17:17:23.326Z,312
2017-03-10T17:27:23.391Z,160
2017-03-10T17:37:23.328Z,48
2017-03-10T17:47:23.378Z,12
2017-03-10T17:57:23.426Z,4
2017-03-10T18:07:23.477Z,0
2017-03-10T18:17:23.407Z,0
2017-03-10T18:27:23.481Z,0
2017-03-10T18:37:23.521Z,0
2017-03-10T18:47:23.534Z,0
2017-03-10T18:57:23.506Z,0
2017-03-10T19:07:23.458Z,0
2017-03-10T19:17:23.489Z,0
2017-03-10T19:27:23.485Z,0
2017-03-10T19:37:23.548Z,0
2017-03-10T19:47:23.631Z,0
2017-03-10T19:57:23.827Z,0
2017-03-10T20:07:23.485Z,0
2017-03-10T20:17:23.544Z,0
2017-03-10T20:27:23.616Z,0
2017-03-10T20:37:23.573Z,0
2017-03-10T20:47:23.471Z,0
2017-03-10T20:57:23.604Z,0
2017-03-10T21:07:23.575Z,0
2017-03-10T21:17:23.645Z,0
2017-03-10T21:27:23.711Z,0
2017-03-10T21:37:23.688Z,0
2017-03-10T21:47:23.582Z,0
2017-03-10T21:57:23.739Z,0
2017-03-10T22:07:23.693Z,0
2017-03-10T22:17:23.747Z,0
2017-03-10T22:27:23.681Z,0
2017-03-10T22:37:23.691Z,0
2017-03-10T22:47:23.641Z,0
2017-03-10T22:57:23.735Z,0
2017-03-10T23:07:23.647Z,0
2017-03-10T23:17:23.723Z,0
2017-03-10T23:27:23.693Z,0
2017-03-10T23:37:23.852Z,0
2017-03-10T23:47:23.692Z,0
2017-03-10T23:57:23.758Z,0
